createdAt,value
2024-05-09T00:00:42.882Z,22.88
2024-05-09T00:03:30.875Z,22.87
2024-05-09T00:05:58.934Z,22.86
2024-05-09T00:08:27.012Z,22.86
2024-05-09T00:10:55.073Z,22.86
2024-05-09T00:13:23.202Z,22.86
2024-05-09T00:15:51.273Z,22.85
2024-05-09T00:18:19.459Z,22.86
2024-05-09T00:20:47.594Z,22.86
2024-05-09T00:23:15.765Z,22.85
2024-05-09T00:25:44.299Z,22.86
2024-05-09T00:28:12.889Z,22.86
2024-05-09T00:30:41.235Z,22.85
2024-05-09T00:33:10.582Z,22.85
2024-05-09T00:35:39.828Z,22.84
2024-05-09T00:38:08.123Z,22.84
2024-05-09T00:40:40.825Z,22.84
2024-05-09T00:43:11.806Z,22.84
2024-05-09T00:45:40.521Z,22.83
2024-05-09T00:48:09.874Z,22.83
2024-05-09T00:50:41.198Z,22.83
2024-05-09T00:53:13.184Z,22.82
2024-05-09T00:55:41.433Z,22.83
2024-05-09T00:58:10.571Z,22.83
2024-05-09T01:00:40.541Z,22.83
2024-05-09T01:03:11.787Z,22.83
2024-05-09T01:05:42.839Z,22.83
2024-05-09T01:08:11.562Z,22.83
2024-05-09T01:10:42.838Z,22.82
2024-05-09T01:13:13.183Z,22.82
2024-05-09T01:15:41.177Z,22.81
2024-05-09T01:18:13.450Z,22.81
2024-05-09T01:20:44.599Z,22.79
2024-05-09T01:23:15.341Z,22.80
2024-05-09T01:25:45.143Z,22.80
2024-05-09T01:28:13.934Z,22.80
2024-05-09T01:30:42.035Z,22.80
2024-05-09T01:33:11.739Z,22.80
2024-05-09T01:35:42.296Z,22.80
2024-05-09T01:38:16.894Z,22.79
2024-05-09T01:40:45.256Z,22.79
2024-05-09T01:43:13.549Z,22.78
2024-05-09T01:45:41.830Z,22.79
2024-05-09T01:48:10.787Z,22.79
2024-05-09T01:50:42.139Z,22.78
2024-05-09T01:53:12.759Z,22.78
2024-05-09T01:55:41.311Z,22.78
2024-05-09T01:58:09.669Z,22.77
2024-05-09T02:00:42.029Z,22.77
2024-05-09T02:03:15.024Z,22.77
2024-05-09T02:05:46.888Z,22.76
2024-05-09T02:08:17.472Z,22.75
2024-05-09T02:10:47.157Z,22.75
2024-05-09T02:13:15.906Z,22.75
2024-05-09T02:15:44.084Z,22.75
2024-05-09T02:18:12.879Z,22.74
2024-05-09T02:20:42.271Z,22.75
2024-05-09T02:23:11.104Z,22.75
2024-05-09T02:25:39.596Z,22.75
2024-05-09T02:28:07.477Z,22.75
2024-05-09T02:30:40.013Z,22.74
2024-05-09T02:33:11.666Z,22.74
2024-05-09T02:35:42.058Z,22.74
2024-05-09T02:38:10.659Z,22.74
2024-05-09T02:40:40.077Z,22.74
2024-05-09T02:43:10.364Z,22.74
2024-05-09T02:45:40.284Z,22.74
2024-05-09T02:48:12.621Z,22.73
2024-05-09T02:50:41.857Z,22.73
2024-05-09T02:53:13.283Z,22.74
2024-05-09T02:55:41.733Z,22.74
2024-05-09T02:58:10.393Z,22.74
2024-05-09T03:00:41.421Z,22.73
2024-05-09T03:03:13.278Z,22.73
2024-05-09T03:05:44.640Z,22.72
2024-05-09T03:08:13.273Z,22.72
2024-05-09T03:10:41.515Z,22.72
2024-05-09T03:13:14.644Z,22.72
2024-05-09T03:15:44.431Z,22.72
2024-05-09T03:18:12.948Z,22.72
2024-05-09T03:20:43.460Z,22.72
2024-05-09T03:23:11.594Z,22.71
2024-05-09T03:25:39.648Z,22.71
2024-05-09T03:28:07.627Z,22.71
2024-05-09T03:30:41.069Z,22.71
2024-05-09T03:33:16.755Z,22.71
2024-05-09T03:35:45.394Z,22.71
2024-05-09T03:38:13.510Z,22.71
2024-05-09T03:40:49.042Z,22.70
2024-05-09T03:43:18.111Z,22.70
2024-05-09T03:45:47.633Z,22.70
2024-05-09T03:48:15.822Z,22.69
2024-05-09T03:50:44.164Z,22.70
2024-05-09T03:53:12.999Z,22.69
2024-05-09T03:55:41.258Z,22.69
2024-05-09T03:58:09.304Z,22.69
2024-05-09T04:00:39.519Z,22.69
2024-05-09T04:03:11.069Z,22.70
2024-05-09T04:05:42.589Z,22.69
2024-05-09T04:08:14.888Z,22.69
2024-05-09T04:10:43.179Z,22.68
2024-05-09T04:22:31.577Z,22.59
2024-05-09T04:24:59.571Z,22.58
2024-05-09T04:27:27.597Z,22.60
2024-05-09T04:29:55.484Z,22.62
2024-05-09T04:32:23.623Z,22.63
2024-05-09T04:34:51.576Z,22.65
2024-05-09T04:37:20.165Z,22.67
2024-05-09T04:39:48.154Z,22.71
2024-05-09T04:42:16.127Z,22.75
2024-05-09T04:44:44.096Z,22.80
2024-05-09T04:47:12.192Z,22.86
2024-05-09T04:49:42.137Z,22.91
2024-05-09T04:52:10.101Z,22.96
2024-05-09T04:54:37.984Z,23.02
2024-05-09T04:57:05.954Z,23.06
2024-05-09T04:59:34.279Z,23.13
2024-05-09T05:02:02.345Z,23.19
2024-05-09T05:04:30.986Z,23.25
2024-05-09T05:07:02.153Z,23.29
2024-05-09T05:09:30.787Z,23.36
2024-05-09T05:11:59.681Z,23.43
2024-05-09T05:14:27.813Z,23.50
2024-05-09T05:16:55.960Z,23.57
2024-05-09T05:19:24.022Z,23.63
2024-05-09T05:21:52.072Z,23.69
2024-05-09T05:24:20.026Z,23.74
2024-05-09T05:26:48.081Z,23.80
2024-05-09T05:29:18.482Z,23.84
2024-05-09T05:31:47.450Z,23.90
2024-05-09T05:34:15.524Z,23.93
2024-05-09T05:36:43.532Z,23.97
2024-05-09T05:39:11.918Z,24.01
2024-05-09T05:41:39.885Z,24.05
2024-05-09T05:44:10.288Z,24.08
2024-05-09T05:46:38.363Z,24.13
2024-05-09T05:49:06.549Z,24.15
2024-05-09T05:51:34.466Z,24.14
2024-05-09T05:54:02.436Z,24.14
2024-05-09T05:56:30.431Z,24.15
2024-05-09T05:58:58.522Z,24.14
2024-05-09T06:01:26.708Z,24.15
2024-05-09T06:03:54.727Z,24.15
2024-05-09T06:06:22.683Z,24.14
2024-05-09T06:08:51.059Z,24.05
2024-05-09T06:11:18.993Z,24.01
2024-05-09T06:13:47.159Z,23.95
2024-05-09T06:16:15.197Z,23.95
2024-05-09T06:18:43.189Z,23.95
2024-05-09T06:21:11.210Z,23.93
2024-05-09T06:23:48.717Z,23.94
2024-05-09T06:26:16.867Z,23.94
2024-05-09T06:28:44.912Z,23.96
2024-05-09T06:31:12.971Z,23.97
2024-05-09T06:33:41.789Z,23.97
2024-05-09T06:36:09.777Z,23.98
2024-05-09T06:38:37.876Z,23.99
2024-05-09T06:41:06.101Z,24.00
2024-05-09T06:43:35.030Z,24.01
2024-05-09T06:46:03.400Z,24.02
2024-05-09T06:48:31.522Z,24.03
2024-05-09T06:51:00.586Z,24.03
2024-05-09T06:53:28.674Z,24.03
2024-05-09T06:55:56.629Z,24.03
2024-05-09T06:58:24.519Z,24.03
2024-05-09T07:00:52.631Z,24.06
2024-05-09T07:03:20.872Z,24.08
2024-05-09T07:05:49.778Z,24.11
2024-05-09T07:08:18.222Z,24.14
2024-05-09T07:10:46.590Z,24.15
2024-05-09T07:13:15.449Z,24.17
2024-05-09T07:15:43.741Z,24.19
2024-05-09T07:18:16.925Z,24.23
2024-05-09T07:20:47.553Z,24.27
2024-05-09T07:23:16.287Z,24.32
2024-05-09T07:25:44.702Z,24.35
2024-05-09T07:28:16.756Z,24.40
2024-05-09T07:30:45.134Z,24.44
2024-05-09T07:33:21.370Z,24.47
2024-05-09T07:35:51.003Z,24.49
2024-05-09T07:38:19.165Z,24.51
2024-05-09T07:40:47.327Z,24.54
2024-05-09T07:43:15.665Z,24.56
2024-05-09T07:45:51.740Z,24.58
2024-05-09T07:52:38.317Z,24.60
2024-05-09T07:53:46.954Z,24.61
2024-05-09T07:56:18.938Z,24.62
2024-05-09T07:58:49.716Z,24.64
2024-05-09T08:01:17.916Z,24.65
2024-05-09T08:03:46.403Z,24.65
2024-05-09T08:06:14.832Z,24.67
2024-05-09T08:08:42.947Z,24.69
2024-05-09T08:11:10.872Z,24.70
2024-05-09T08:13:38.867Z,24.71
2024-05-09T08:16:07.223Z,24.72
2024-05-09T08:18:35.527Z,24.72
2024-05-09T08:21:03.909Z,24.74
2024-05-09T08:23:31.898Z,24.74
2024-05-09T08:26:00.668Z,24.74
2024-05-09T08:28:28.778Z,24.76
2024-05-09T08:30:57.083Z,24.79
2024-05-09T08:33:25.399Z,24.80
2024-05-09T08:35:55.022Z,24.82
2024-05-09T08:38:22.950Z,24.85
2024-05-09T08:40:50.947Z,24.87
2024-05-09T08:43:19.596Z,24.89
2024-05-09T08:45:49.411Z,24.92
2024-05-09T08:48:17.657Z,24.93
2024-05-09T08:50:46.072Z,24.96
2024-05-09T08:53:16.838Z,24.97
2024-05-09T08:55:48.978Z,24.98
2024-05-09T08:58:20.555Z,24.98
2024-05-09T09:00:49.447Z,24.98
2024-05-09T09:03:18.923Z,24.99
2024-05-09T09:06:06.294Z,25.00
2024-05-09T09:08:34.338Z,25.00
2024-05-09T09:11:02.257Z,25.01
2024-05-09T09:13:30.187Z,25.03
2024-05-09T09:15:59.121Z,25.04
2024-05-09T09:18:28.114Z,25.04
2024-05-09T09:20:56.371Z,25.03
2024-05-09T09:23:24.299Z,25.03
2024-05-09T09:25:52.299Z,25.03
2024-05-09T09:28:22.801Z,25.03
2024-05-09T09:30:50.950Z,25.01
2024-05-09T09:33:19.664Z,24.99
2024-05-09T09:35:47.647Z,25.00
2024-05-09T09:38:16.884Z,24.98
2024-05-09T09:40:49.517Z,24.97
2024-05-09T09:43:22.622Z,24.97
2024-05-09T09:45:53.006Z,24.96
2024-05-09T09:48:21.739Z,24.96
2024-05-09T09:50:51.398Z,24.97
2024-05-09T09:53:19.556Z,24.90
2024-05-09T09:55:47.607Z,24.78
2024-05-09T09:58:18.597Z,24.60
2024-05-09T10:00:46.831Z,24.23
2024-05-09T10:03:14.989Z,23.78
2024-05-09T10:05:46.254Z,23.34
2024-05-09T10:08:15.611Z,23.23
2024-05-09T10:10:46.152Z,23.24
2024-05-09T10:13:14.567Z,23.32
2024-05-09T10:15:55.525Z,23.41
2024-05-09T10:18:29.544Z,23.52
2024-05-09T10:20:59.947Z,23.62
2024-05-09T10:23:29.042Z,23.72
2024-05-09T10:25:57.814Z,23.82
2024-05-09T10:28:29.541Z,23.90
2024-05-09T10:31:15.862Z,23.99
2024-05-09T10:33:49.370Z,24.07
2024-05-09T10:36:22.322Z,24.14
2024-05-09T10:38:50.919Z,24.20
2024-05-09T10:41:19.602Z,24.25
2024-05-09T10:43:47.758Z,24.29
2024-05-09T10:46:16.521Z,24.33
2024-05-09T10:48:45.129Z,24.37
2024-05-09T10:51:13.317Z,24.39
2024-05-09T10:53:45.185Z,24.42
2024-05-09T10:56:13.560Z,24.44
2024-05-09T10:58:41.672Z,24.46
2024-05-09T11:01:11.031Z,24.46
2024-05-09T11:03:39.784Z,24.48
2024-05-09T11:06:09.413Z,24.48
2024-05-09T11:08:37.609Z,24.50
2024-05-09T11:11:07.421Z,24.50
2024-05-09T11:13:38.984Z,24.50
2024-05-09T11:16:16.660Z,24.49
2024-05-09T11:18:52.836Z,24.49
2024-05-09T11:21:21.006Z,24.49
2024-05-09T11:23:48.907Z,24.47
2024-05-09T11:26:19.204Z,24.47
2024-05-09T11:28:47.407Z,24.45
2024-05-09T11:31:15.426Z,24.44
2024-05-09T11:33:44.836Z,24.43
2024-05-09T11:36:12.950Z,24.42
2024-05-09T11:38:41.084Z,24.41
2024-05-09T11:41:09.147Z,24.39
2024-05-09T11:43:37.146Z,24.39
2024-05-09T11:46:05.200Z,24.38
2024-05-09T11:48:33.325Z,24.37
2024-05-09T11:51:01.301Z,24.36
2024-05-09T11:53:29.248Z,24.36
2024-05-09T11:55:57.223Z,24.35
2024-05-09T11:58:25.172Z,24.34
2024-05-09T12:00:53.298Z,24.33
2024-05-09T12:03:21.578Z,24.31
2024-05-09T12:05:49.771Z,24.31
2024-05-09T12:08:17.836Z,24.30
2024-05-09T12:10:46.481Z,24.29
2024-05-09T12:13:14.597Z,24.29
2024-05-09T12:15:42.624Z,24.28
2024-05-09T12:18:10.674Z,24.28
2024-05-09T12:20:40.051Z,24.27
2024-05-09T12:23:09.714Z,24.26
2024-05-09T12:25:39.159Z,24.24
2024-05-09T12:28:08.078Z,24.24
2024-05-09T12:30:40.694Z,24.23
2024-05-09T12:33:13.741Z,24.22
2024-05-09T12:35:44.311Z,24.20
2024-05-09T12:38:15.175Z,24.19
2024-05-09T12:40:43.774Z,24.18
2024-05-09T12:52:38.613Z,24.04
2024-05-09T12:55:06.570Z,24.02
2024-05-09T12:57:34.679Z,24.02
2024-05-09T13:00:04.051Z,24.03
2024-05-09T13:02:32.289Z,24.05
2024-05-09T13:05:00.455Z,24.05
2024-05-09T13:07:28.545Z,24.05
2024-05-09T13:09:56.595Z,24.05
2024-05-09T13:12:26.237Z,24.05
2024-05-09T13:14:54.164Z,24.05
2024-05-09T13:17:22.306Z,24.04
2024-05-09T13:19:50.314Z,24.03
2024-05-09T13:22:18.189Z,24.03
2024-05-09T13:24:46.203Z,24.02
2024-05-09T13:27:14.150Z,24.01
2024-05-09T13:29:44.207Z,24.01
2024-05-09T13:32:12.464Z,24.01
2024-05-09T13:34:40.568Z,24.00
2024-05-09T13:37:08.533Z,23.99
2024-05-09T13:39:36.776Z,23.99
2024-05-09T13:42:04.909Z,23.98
2024-05-09T13:44:33.060Z,23.96
2024-05-09T13:47:00.951Z,23.95
2024-05-09T13:49:28.951Z,23.94
2024-05-09T13:51:57.011Z,23.93
2024-05-09T13:54:24.980Z,23.92
2024-05-09T13:56:53.015Z,23.91
2024-05-09T13:59:21.016Z,23.90
2024-05-09T14:01:49.220Z,23.89
2024-05-09T14:04:17.812Z,23.88
2024-05-09T14:06:46.044Z,23.87
2024-05-09T14:09:14.161Z,23.86
2024-05-09T14:11:42.426Z,23.85
2024-05-09T14:14:10.433Z,23.85
2024-05-09T14:16:38.913Z,23.84
2024-05-09T14:19:06.980Z,23.83
2024-05-09T14:21:35.052Z,23.82
2024-05-09T14:24:02.991Z,23.81
2024-05-09T14:26:30.995Z,23.80
2024-05-09T14:28:58.989Z,23.78
2024-05-09T14:31:27.122Z,23.77
2024-05-09T14:33:55.430Z,23.76
2024-05-09T14:36:23.488Z,23.75
2024-05-09T14:38:51.469Z,23.74
2024-05-09T14:41:19.468Z,23.73
2024-05-09T14:43:47.493Z,23.72
2024-05-09T14:46:15.535Z,23.71
2024-05-09T14:48:43.570Z,23.70
2024-05-09T14:51:11.509Z,23.70
2024-05-09T14:53:39.385Z,23.69
2024-05-09T14:56:07.582Z,23.68
2024-05-09T14:58:35.440Z,23.68
2024-05-09T15:01:03.449Z,23.68
2024-05-09T15:03:31.611Z,23.68
2024-05-09T15:05:59.727Z,23.67
2024-05-09T15:08:27.767Z,23.65
2024-05-09T15:10:55.978Z,23.65
2024-05-09T15:13:24.588Z,23.64
2024-05-09T15:15:52.867Z,23.63
2024-05-09T15:18:21.155Z,23.63
2024-05-09T15:20:49.475Z,23.62
2024-05-09T15:23:17.482Z,23.61
2024-05-09T15:25:45.507Z,23.60
2024-05-09T15:28:13.537Z,23.59
2024-05-09T15:30:45.511Z,23.59
2024-05-09T15:33:14.994Z,23.58
2024-05-09T15:35:43.002Z,23.57
2024-05-09T15:38:10.949Z,23.57
2024-05-09T15:40:40.725Z,23.56
2024-05-09T15:43:10.869Z,23.55
2024-05-09T15:45:41.012Z,23.54
2024-05-09T15:48:09.998Z,23.54
2024-05-09T15:50:41.104Z,23.53
2024-05-09T15:53:12.167Z,23.52
2024-05-09T15:55:41.912Z,23.52
2024-05-09T15:58:10.282Z,23.50
2024-05-09T16:00:41.734Z,23.51
2024-05-09T16:03:12.739Z,23.50
2024-05-09T16:05:45.820Z,23.49
2024-05-09T16:08:14.802Z,23.47
2024-05-09T16:10:45.761Z,23.48
2024-05-09T16:13:15.387Z,23.46
2024-05-09T16:15:43.752Z,23.45
2024-05-09T16:18:12.275Z,23.45
2024-05-09T16:20:42.350Z,23.45
2024-05-09T16:23:12.511Z,23.44
2024-05-09T16:25:45.050Z,23.43
2024-05-09T16:28:13.090Z,23.43
2024-05-09T16:30:41.573Z,23.40
2024-05-09T16:33:11.653Z,23.40
2024-05-09T16:35:40.191Z,23.39
2024-05-09T16:38:08.286Z,23.38
2024-05-09T16:40:39.942Z,23.37
2024-05-09T16:43:10.675Z,23.35
2024-05-09T16:45:40.257Z,23.36
2024-05-09T16:48:08.958Z,23.36
2024-05-09T16:50:37.424Z,23.35
2024-05-09T16:53:06.518Z,23.34
2024-05-09T16:55:35.746Z,23.33
2024-05-09T16:58:04.997Z,23.33
2024-05-09T17:00:40.652Z,23.32
2024-05-09T17:03:15.758Z,23.32
2024-05-09T17:05:48.393Z,23.32
2024-05-09T17:08:17.698Z,23.31
2024-05-09T17:10:46.443Z,23.30
2024-05-09T17:13:14.812Z,23.30
2024-05-09T17:15:42.795Z,23.30
2024-05-09T17:18:11.003Z,23.30
2024-05-09T17:20:39.143Z,23.29
2024-05-09T17:23:12.369Z,23.29
2024-05-09T17:25:40.791Z,23.29
2024-05-09T17:28:09.090Z,23.30
2024-05-09T17:30:39.067Z,23.30
2024-05-09T17:33:10.052Z,23.29
2024-05-09T17:35:39.029Z,23.28
2024-05-09T17:38:07.237Z,23.28
2024-05-09T17:40:37.407Z,23.28
2024-05-09T17:43:08.984Z,23.27
2024-05-09T17:45:40.077Z,23.28
2024-05-09T17:48:09.533Z,23.27
2024-05-09T17:50:38.459Z,23.26
2024-05-09T17:53:06.867Z,23.26
2024-05-09T17:55:35.491Z,23.26
2024-05-09T17:58:04.724Z,23.25
2024-05-09T18:00:38.939Z,23.25
2024-05-09T18:03:13.845Z,23.25
2024-05-09T18:05:44.763Z,23.24
2024-05-09T18:08:13.859Z,23.24
2024-05-09T18:10:42.484Z,23.24
2024-05-09T18:13:11.756Z,23.24
2024-05-09T18:15:40.464Z,23.23
2024-05-09T18:18:09.107Z,23.22
2024-05-09T18:20:43.631Z,23.21
2024-05-09T18:23:16.056Z,23.22
2024-05-09T18:25:46.190Z,23.22
2024-05-09T18:28:14.733Z,23.21
2024-05-09T18:30:42.947Z,23.21
2024-05-09T18:33:11.718Z,23.21
2024-05-09T18:35:43.807Z,23.22
2024-05-09T18:38:12.017Z,23.21
2024-05-09T18:40:42.024Z,23.20
2024-05-09T18:43:11.898Z,23.20
2024-05-09T18:45:40.321Z,23.18
2024-05-09T18:48:09.658Z,23.19
2024-05-09T18:50:40.331Z,23.19
2024-05-09T18:53:10.840Z,23.18
2024-05-09T18:55:39.816Z,23.18
2024-05-09T18:58:08.036Z,23.18
2024-05-09T19:00:39.062Z,23.18
2024-05-09T19:03:12.305Z,23.18
2024-05-09T19:05:43.728Z,23.16
2024-05-09T19:08:14.238Z,23.16
2024-05-09T19:10:42.392Z,23.14
2024-05-09T19:13:12.993Z,23.13
2024-05-09T19:15:43.243Z,23.15
2024-05-09T19:18:13.044Z,23.13
2024-05-09T19:20:42.047Z,23.12
2024-05-09T19:23:11.239Z,23.12
2024-05-09T19:25:39.228Z,23.12
2024-05-09T19:28:07.204Z,23.13
2024-05-09T19:30:40.268Z,23.12
2024-05-09T19:33:12.706Z,23.12
2024-05-09T19:35:42.619Z,23.11
2024-05-09T19:38:11.523Z,23.11
2024-05-09T19:40:39.581Z,23.12
2024-05-09T19:43:07.805Z,23.11
2024-05-09T19:45:36.587Z,23.11
2024-05-09T19:48:06.299Z,23.10
2024-05-09T19:50:41.776Z,23.10
2024-05-09T19:53:13.566Z,23.10
2024-05-09T19:55:41.870Z,23.08
2024-05-09T19:58:10.362Z,23.08
2024-05-09T20:00:41.061Z,23.08
2024-05-09T20:03:12.285Z,23.08
2024-05-09T20:05:42.555Z,23.08
2024-05-09T20:08:10.937Z,23.07
2024-05-09T20:10:39.086Z,23.07
2024-05-09T20:13:08.199Z,23.07
2024-05-09T20:15:37.544Z,23.07
2024-05-09T20:18:06.473Z,23.06
2024-05-09T20:20:39.373Z,23.07
2024-05-09T20:23:11.257Z,23.06
2024-05-09T20:25:39.994Z,23.06
2024-05-09T20:28:08.148Z,23.06
2024-05-09T20:30:36.737Z,23.06
2024-05-09T20:33:09.459Z,23.05
2024-05-09T20:35:38.265Z,23.05
2024-05-09T20:38:06.222Z,23.05
2024-05-09T20:40:37.694Z,23.04
2024-05-09T20:43:08.570Z,23.04
2024-05-09T20:45:36.912Z,23.04
2024-05-09T20:48:06.095Z,23.04
2024-05-09T20:50:39.313Z,23.03
2024-05-09T20:53:11.010Z,23.02
2024-05-09T20:55:39.768Z,23.02
2024-05-09T20:58:08.445Z,23.03
2024-05-09T21:00:40.541Z,23.03
2024-05-09T21:03:12.812Z,23.02
2024-05-09T21:05:42.044Z,23.02
2024-05-09T21:08:10.127Z,23.02
2024-05-09T21:10:38.372Z,23.02
2024-05-09T21:13:07.294Z,23.01
2024-05-09T21:15:36.203Z,23.02
2024-05-09T21:18:05.003Z,23.01
2024-05-09T21:20:34.370Z,23.01
2024-05-09T21:23:03.274Z,23.00
2024-05-09T21:25:31.613Z,23.01
2024-05-09T21:28:00.227Z,23.00
2024-05-09T21:30:38.254Z,23.01
2024-05-09T21:33:12.801Z,23.00
2024-05-09T21:35:43.119Z,23.00
2024-05-09T21:38:13.114Z,22.99
2024-05-09T21:40:41.431Z,22.99
2024-05-09T21:43:09.498Z,23.01
2024-05-09T21:45:37.862Z,23.00
2024-05-09T21:48:06.943Z,22.99
2024-05-09T21:50:40.366Z,22.98
2024-05-09T21:53:11.549Z,22.98
2024-05-09T21:55:39.962Z,22.99
2024-05-09T21:58:08.282Z,22.98
2024-05-09T22:00:39.167Z,22.98
2024-05-09T22:03:08.758Z,22.98
2024-05-09T22:05:38.856Z,22.97
2024-05-09T22:08:07.574Z,22.97
2024-05-09T22:10:36.819Z,22.96
2024-05-09T22:13:06.556Z,22.96
2024-05-09T22:15:36.432Z,22.96
2024-05-09T22:18:05.641Z,22.97
2024-05-09T22:20:38.973Z,22.96
2024-05-09T22:23:08.608Z,22.95
2024-05-09T22:25:38.227Z,22.95
2024-05-09T22:28:06.541Z,22.95
2024-05-09T22:30:38.238Z,22.95
2024-05-09T22:33:09.415Z,22.95
2024-05-09T22:35:39.200Z,22.95
2024-05-09T22:38:07.134Z,22.95
2024-05-09T22:43:06.234Z,22.95
2024-05-09T22:45:34.564Z,22.94
2024-05-09T22:48:02.639Z,22.93
2024-05-09T22:50:33.099Z,22.94
2024-05-09T22:53:01.802Z,22.94
2024-05-09T22:55:30.126Z,22.94
2024-05-09T22:57:58.118Z,22.94
2024-05-09T23:00:31.231Z,22.93
2024-05-09T23:03:01.360Z,22.93
2024-05-09T23:05:31.818Z,22.92
2024-05-09T23:08:03.536Z,22.92
2024-05-09T23:10:36.107Z,22.92
2024-05-09T23:13:07.594Z,22.92
2024-05-09T23:15:36.904Z,22.91
2024-05-09T23:18:05.478Z,22.91
2024-05-09T23:20:38.130Z,22.91
2024-05-09T23:23:08.373Z,22.91
2024-05-09T23:25:36.718Z,22.88
2024-05-09T23:28:05.297Z,22.90
2024-05-09T23:30:38.232Z,22.91
2024-05-09T23:33:12.642Z,22.90
2024-05-09T23:35:41.667Z,22.90
2024-05-09T23:38:09.650Z,22.89
2024-05-09T23:40:40.353Z,22.89
2024-05-09T23:43:10.490Z,22.89
2024-05-09T23:45:39.078Z,22.89
2024-05-09T23:48:07.855Z,22.88
2024-05-09T23:50:38.336Z,22.89
2024-05-09T23:53:09.347Z,22.89
2024-05-09T23:55:38.474Z,22.88
2024-05-09T23:58:07.405Z,22.88
